sensor_id;sensor_type;location;lat;lon;timestamp;pressure;altitude;pressure_sealevel;temperature;humidity
20077;BME280;12348;42.710;23.378;2022-12-10T00:02:09;94478.78;;;8.71;100.00
20077;BME280;12348;42.710;23.378;2022-12-10T00:04:35;94479.38;;;8.68;100.00
20077;BME280;12348;42.710;23.378;2022-12-10T00:07:02;94494.94;;;8.66;100.00
20077;BME280;12348;42.710;23.378;2022-12-10T00:09:29;94493.16;;;8.61;100.00
20077;BME280;12348;42.710;23.378;2022-12-10T00:11:56;94486.09;;;8.65;100.00
20077;BME280;12348;42.710;23.378;2022-12-10T00:14:24;94484.56;;;8.78;100.00
20077;BME280;12348;42.710;23.378;2022-12-10T00:16:51;94494.41;;;8.83;100.00
20077;BME280;12348;42.710;23.378;2022-12-10T00:19:17;94498.06;;;8.73;100.00
20077;BME280;12348;42.710;23.378;2022-12-10T00:21:44;94485.31;;;8.65;100.00
20077;BME280;12348;42.710;23.378;2022-12-10T00:24:11;94491.38;;;8.89;100.00
20077;BME280;12348;42.710;23.378;2022-12-10T00:26:39;94493.53;;;8.87;100.00
20077;BME280;12348;42.710;23.378;2022-12-10T00:29:09;94478.19;;;8.74;100.00
20077;BME280;12348;42.710;23.378;2022-12-10T00:31:39;94476.09;;;8.71;100.00
20077;BME280;12348;42.710;23.378;2022-12-10T00:34:08;94475.59;;;8.69;100.00
20077;BME280;12348;42.710;23.378;2022-12-10T00:36:38;94489.25;;;8.86;100.00
20077;BME280;12348;42.710;23.378;2022-12-10T00:39:06;94490.84;;;8.87;100.00
20077;BME280;12348;42.710;23.378;2022-12-10T00:41:33;94496.22;;;8.87;100.00
20077;BME280;12348;42.710;23.378;2022-12-10T00:44:00;94502.81;;;8.95;100.00
20077;BME280;12348;42.710;23.378;2022-12-10T00:46:27;94506.69;;;9.03;100.00
20077;BME280;12348;42.710;23.378;2022-12-10T00:48:55;94484.72;;;9.01;100.00
20077;BME280;12348;42.710;23.378;2022-12-10T00:51:24;94488.59;;;8.94;100.00
20077;BME280;12348;42.710;23.378;2022-12-10T00:53:52;94483.53;;;8.93;100.00
20077;BME280;12348;42.710;23.378;2022-12-10T00:56:21;94484.81;;;8.95;100.00
20077;BME280;12348;42.710;23.378;2022-12-10T00:58:49;94477.75;;;8.99;100.00
20077;BME280;12348;42.710;23.378;2022-12-10T01:01:18;94479.56;;;9.04;100.00
20077;BME280;12348;42.710;23.378;2022-12-10T01:03:48;94477.69;;;9.05;100.00
20077;BME280;12348;42.710;23.378;2022-12-10T01:06:18;94485.44;;;9.06;100.00
20077;BME280;12348;42.710;23.378;2022-12-10T01:08:46;94494.50;;;9.24;100.00
20077;BME280;12348;42.710;23.378;2022-12-10T01:11:14;94486.44;;;9.24;100.00
20077;BME280;12348;42.710;23.378;2022-12-10T01:13:42;94484.06;;;9.22;100.00
20077;BME280;12348;42.710;23.378;2022-12-10T01:16:10;94492.34;;;9.26;100.00
20077;BME280;12348;42.710;23.378;2022-12-10T01:18:38;94490.66;;;9.30;100.00
20077;BME280;12348;42.710;23.378;2022-12-10T01:21:06;94482.88;;;9.29;100.00
20077;BME280;12348;42.710;23.378;2022-12-10T01:23:38;94454.22;;;9.24;100.00
20077;BME280;12348;42.710;23.378;2022-12-10T01:26:06;94459.78;;;9.14;100.00
20077;BME280;12348;42.710;23.378;2022-12-10T01:28:36;94473.53;;;9.26;100.00
20077;BME280;12348;42.710;23.378;2022-12-10T01:31:05;94494.63;;;9.19;100.00
20077;BME280;12348;42.710;23.378;2022-12-10T01:33:32;94466.66;;;9.20;100.00
20077;BME280;12348;42.710;23.378;2022-12-10T01:36:02;94453.34;;;9.15;100.00
20077;BME280;12348;42.710;23.378;2022-12-10T01:38:28;94463.47;;;9.18;100.00
20077;BME280;12348;42.710;23.378;2022-12-10T01:40:57;94483.47;;;9.26;100.00
20077;BME280;12348;42.710;23.378;2022-12-10T01:43:23;94461.38;;;9.29;100.00
20077;BME280;12348;42.710;23.378;2022-12-10T01:45:50;94450.03;;;9.18;100.00
20077;BME280;12348;42.710;23.378;2022-12-10T01:48:17;94468.34;;;9.16;100.00
20077;BME280;12348;42.710;23.378;2022-12-10T01:50:44;94479.38;;;9.14;100.00
20077;BME280;12348;42.710;23.378;2022-12-10T01:53:12;94481.09;;;9.24;100.00
20077;BME280;12348;42.710;23.378;2022-12-10T01:55:46;94463.97;;;9.20;100.00
20077;BME280;12348;42.710;23.378;2022-12-10T01:58:16;94450.34;;;9.16;100.00
20077;BME280;12348;42.710;23.378;2022-12-10T02:00:58;94461.63;;;8.99;100.00
20077;BME280;12348;42.710;23.378;2022-12-10T02:03:35;94470.38;;;8.91;100.00
20077;BME280;12348;42.710;23.378;2022-12-10T02:06:11;94446.00;;;8.74;100.00
20077;BME280;12348;42.710;23.378;2022-12-10T02:08:49;94439.44;;;8.47;100.00
20077;BME280;12348;42.710;23.378;2022-12-10T02:11:24;94449.53;;;8.37;100.00
20077;BME280;12348;42.710;23.378;2022-12-10T02:13:58;94465.34;;;8.38;100.00
20077;BME280;12348;42.710;23.378;2022-12-10T02:16:31;94458.38;;;8.37;100.00
20077;BME280;12348;42.710;23.378;2022-12-10T02:19:08;94462.88;;;8.23;100.00
20077;BME280;12348;42.710;23.378;2022-12-10T02:21:40;94461.34;;;8.17;100.00
20077;BME280;12348;42.710;23.378;2022-12-10T02:24:11;94444.97;;;8.18;100.00
20077;BME280;12348;42.710;23.378;2022-12-10T02:26:43;94435.53;;;8.21;100.00
20077;BME280;12348;42.710;23.378;2022-12-10T02:29:16;94445.19;;;8.22;100.00
20077;BME280;12348;42.710;23.378;2022-12-10T02:31:47;94449.22;;;8.19;100.00
20077;BME280;12348;42.710;23.378;2022-12-10T02:34:16;94442.56;;;8.17;100.00
20077;BME280;12348;42.710;23.378;2022-12-10T02:36:46;94434.16;;;8.42;100.00
20077;BME280;12348;42.710;23.378;2022-12-10T02:39:17;94414.13;;;8.35;100.00
20077;BME280;12348;42.710;23.378;2022-12-10T02:41:48;94428.56;;;8.39;100.00
20077;BME280;12348;42.710;23.378;2022-12-10T02:44:18;94438.28;;;8.35;100.00
20077;BME280;12348;42.710;23.378;2022-12-10T02:46:48;94428.63;;;8.34;100.00
20077;BME280;12348;42.710;23.378;2022-12-10T02:49:16;94437.16;;;8.41;100.00
20077;BME280;12348;42.710;23.378;2022-12-10T02:51:44;94433.94;;;8.39;100.00
20077;BME280;12348;42.710;23.378;2022-12-10T02:54:36;94426.69;;;8.39;100.00
20077;BME280;12348;42.710;23.378;2022-12-10T02:57:11;94432.59;;;8.36;100.00
20077;BME280;12348;42.710;23.378;2022-12-10T02:59:49;94421.75;;;8.46;100.00
20077;BME280;12348;42.710;23.378;2022-12-10T03:02:25;94427.03;;;8.52;100.00
20077;BME280;12348;42.710;23.378;2022-12-10T03:05:01;94432.06;;;8.39;100.00
20077;BME280;12348;42.710;23.378;2022-12-10T03:07:35;94432.34;;;8.38;100.00
20077;BME280;12348;42.710;23.378;2022-12-10T03:10:06;94431.22;;;8.58;100.00
20077;BME280;12348;42.710;23.378;2022-12-10T03:12:39;94423.09;;;8.63;100.00
20077;BME280;12348;42.710;23.378;2022-12-10T03:15:10;94420.00;;;8.69;100.00
20077;BME280;12348;42.710;23.378;2022-12-10T03:17:38;94415.97;;;8.72;100.00
20077;BME280;12348;42.710;23.378;2022-12-10T03:20:08;94420.16;;;8.92;100.00
20077;BME280;12348;42.710;23.378;2022-12-10T03:22:38;94429.81;;;9.07;100.00
20077;BME280;12348;42.710;23.378;2022-12-10T03:25:07;94423.56;;;8.97;100.00
20077;BME280;12348;42.710;23.378;2022-12-10T03:27:37;94426.31;;;8.92;100.00
20077;BME280;12348;42.710;23.378;2022-12-10T03:30:07;94432.50;;;8.93;100.00
20077;BME280;12348;42.710;23.378;2022-12-10T03:32:36;94429.00;;;8.92;100.00
20077;BME280;12348;42.710;23.378;2022-12-10T03:35:04;94407.44;;;8.97;100.00
20077;BME280;12348;42.710;23.378;2022-12-10T03:37:33;94409.84;;;9.13;100.00
20077;BME280;12348;42.710;23.378;2022-12-10T03:40:01;94424.16;;;9.36;100.00
20077;BME280;12348;42.710;23.378;2022-12-10T03:42:28;94431.03;;;9.28;100.00
20077;BME280;12348;42.710;23.378;2022-12-10T03:44:54;94418.19;;;9.25;100.00
20077;BME280;12348;42.710;23.378;2022-12-10T03:47:22;94417.91;;;9.13;100.00
20077;BME280;12348;42.710;23.378;2022-12-10T03:49:50;94415.31;;;8.94;100.00
20077;BME280;12348;42.710;23.378;2022-12-10T03:52:17;94405.94;;;8.91;100.00
20077;BME280;12348;42.710;23.378;2022-12-10T03:54:44;94408.63;;;8.78;100.00
20077;BME280;12348;42.710;23.378;2022-12-10T03:57:11;94402.63;;;8.67;100.00
20077;BME280;12348;42.710;23.378;2022-12-10T03:59:38;94406.16;;;8.48;100.00
20077;BME280;12348;42.710;23.378;2022-12-10T04:02:05;94405.66;;;8.46;100.00
20077;BME280;12348;42.710;23.378;2022-12-10T04:04:32;94401.81;;;8.53;100.00
20077;BME280;12348;42.710;23.378;2022-12-10T04:07:00;94422.75;;;8.50;100.00
20077;BME280;12348;42.710;23.378;2022-12-10T04:09:27;94413.53;;;8.57;100.00
20077;BME280;12348;42.710;23.378;2022-12-10T04:11:55;94405.38;;;8.62;100.00
20077;BME280;12348;42.710;23.378;2022-12-10T04:14:23;94399.97;;;8.94;100.00
20077;BME280;12348;42.710;23.378;2022-12-10T04:17:07;94407.81;;;8.77;100.00
20077;BME280;12348;42.710;23.378;2022-12-10T04:19:35;94402.53;;;8.72;100.00
20077;BME280;12348;42.710;23.378;2022-12-10T04:22:04;94416.13;;;8.62;100.00
20077;BME280;12348;42.710;23.378;2022-12-10T04:24:48;94420.31;;;8.68;100.00
20077;BME280;12348;42.710;23.378;2022-12-10T04:27:35;94416.97;;;8.76;100.00
20077;BME280;12348;42.710;23.378;2022-12-10T04:30:03;94406.81;;;8.73;100.00
20077;BME280;12348;42.710;23.378;2022-12-10T04:32:30;94424.16;;;8.94;100.00
20077;BME280;12348;42.710;23.378;2022-12-10T04:34:58;94432.78;;;8.91;100.00
20077;BME280;12348;42.710;23.378;2022-12-10T04:37:27;94424.25;;;8.89;100.00
20077;BME280;12348;42.710;23.378;2022-12-10T04:39:54;94408.00;;;8.81;100.00
20077;BME280;12348;42.710;23.378;2022-12-10T04:42:21;94413.72;;;8.93;100.00
20077;BME280;12348;42.710;23.378;2022-12-10T04:44:49;94409.81;;;8.99;100.00
20077;BME280;12348;42.710;23.378;2022-12-10T04:47:15;94413.72;;;8.93;100.00
20077;BME280;12348;42.710;23.378;2022-12-10T04:49:42;94396.72;;;8.97;100.00
20077;BME280;12348;42.710;23.378;2022-12-10T04:52:12;94398.00;;;9.00;100.00
20077;BME280;12348;42.710;23.378;2022-12-10T04:54:40;94403.19;;;9.24;100.00
20077;BME280;12348;42.710;23.378;2022-12-10T04:57:07;94415.50;;;9.25;100.00
20077;BME280;12348;42.710;23.378;2022-12-10T04:59:35;94403.56;;;9.17;100.00
20077;BME280;12348;42.710;23.378;2022-12-10T05:02:02;94405.84;;;9.10;100.00
20077;BME280;12348;42.710;23.378;2022-12-10T05:04:29;94412.03;;;9.11;100.00
20077;BME280;12348;42.710;23.378;2022-12-10T05:06:56;94418.81;;;9.08;100.00
20077;BME280;12348;42.710;23.378;2022-12-10T05:09:22;94422.75;;;8.97;100.00
20077;BME280;12348;42.710;23.378;2022-12-10T05:11:50;94418.78;;;8.94;100.00
20077;BME280;12348;42.710;23.378;2022-12-10T05:14:17;94419.78;;;8.98;100.00
20077;BME280;12348;42.710;23.378;2022-12-10T05:16:44;94419.28;;;8.96;100.00
20077;BME280;12348;42.710;23.378;2022-12-10T05:19:11;94414.00;;;8.91;100.00
20077;BME280;12348;42.710;23.378;2022-12-10T05:21:38;94408.56;;;8.96;100.00
20077;BME280;12348;42.710;23.378;2022-12-10T05:24:22;94409.84;;;9.13;100.00
20077;BME280;12348;42.710;23.378;2022-12-10T05:26:50;94405.78;;;9.15;100.00
20077;BME280;12348;42.710;23.378;2022-12-10T05:29:18;94393.03;;;9.21;100.00
20077;BME280;12348;42.710;23.378;2022-12-10T05:31:45;94393.53;;;9.23;100.00
20077;BME280;12348;42.710;23.378;2022-12-10T05:34:12;94387.56;;;9.26;100.00
20077;BME280;12348;42.710;23.378;2022-12-10T05:36:39;94393.13;;;9.43;100.00
20077;BME280;12348;42.710;23.378;2022-12-10T05:39:06;94392.00;;;9.58;100.00
20077;BME280;12348;42.710;23.378;2022-12-10T05:41:35;94389.03;;;9.46;100.00
20077;BME280;12348;42.710;23.378;2022-12-10T05:44:04;94385.97;;;9.39;100.00
20077;BME280;12348;42.710;23.378;2022-12-10T05:46:32;94386.34;;;9.32;100.00
20077;BME280;12348;42.710;23.378;2022-12-10T05:48:59;94394.94;;;9.34;100.00
20077;BME280;12348;42.710;23.378;2022-12-10T05:51:28;94411.34;;;9.46;100.00
20077;BME280;12348;42.710;23.378;2022-12-10T05:53:57;94413.38;;;9.63;100.00
20077;BME280;12348;42.710;23.378;2022-12-10T05:56:25;94408.84;;;9.64;100.00
20077;BME280;12348;42.710;23.378;2022-12-10T05:58:53;94419.19;;;9.57;100.00
20077;BME280;12348;42.710;23.378;2022-12-10T06:01:23;94425.44;;;9.52;100.00
20077;BME280;12348;42.710;23.378;2022-12-10T06:03:50;94430.13;;;9.60;100.00
20077;BME280;12348;42.710;23.378;2022-12-10T06:06:20;94425.81;;;9.87;100.00
20077;BME280;12348;42.710;23.378;2022-12-10T06:08:48;94425.03;;;9.73;100.00
20077;BME280;12348;42.710;23.378;2022-12-10T06:11:16;94422.69;;;9.57;100.00
20077;BME280;12348;42.710;23.378;2022-12-10T06:13:43;94422.88;;;9.33;100.00
20077;BME280;12348;42.710;23.378;2022-12-10T06:16:12;94425.88;;;9.32;100.00
20077;BME280;12348;42.710;23.378;2022-12-10T06:18:41;94412.72;;;9.44;100.00
20077;BME280;12348;42.710;23.378;2022-12-10T06:21:09;94420.88;;;9.53;100.00
20077;BME280;12348;42.710;23.378;2022-12-10T06:23:38;94420.59;;;9.40;100.00
20077;BME280;12348;42.710;23.378;2022-12-10T06:26:06;94422.28;;;9.36;100.00
20077;BME280;12348;42.710;23.378;2022-12-10T06:28:33;94419.81;;;9.26;100.00
20077;BME280;12348;42.710;23.378;2022-12-10T06:31:00;94410.53;;;9.18;100.00
20077;BME280;12348;42.710;23.378;2022-12-10T06:33:27;94397.81;;;9.38;100.00
20077;BME280;12348;42.710;23.378;2022-12-10T06:35:55;94410.34;;;9.56;100.00
20077;BME280;12348;42.710;23.378;2022-12-10T06:38:22;94406.56;;;9.43;100.00
20077;BME280;12348;42.710;23.378;2022-12-10T06:40:49;94403.28;;;9.46;100.00
20077;BME280;12348;42.710;23.378;2022-12-10T06:43:16;94398.59;;;9.38;100.00
20077;BME280;12348;42.710;23.378;2022-12-10T06:45:43;94402.88;;;9.39;100.00
20077;BME280;12348;42.710;23.378;2022-12-10T06:48:10;94416.97;;;9.59;100.00
20077;BME280;12348;42.710;23.378;2022-12-10T06:50:36;94418.75;;;9.63;100.00
20077;BME280;12348;42.710;23.378;2022-12-10T06:53:05;94413.81;;;9.57;100.00
20077;BME280;12348;42.710;23.378;2022-12-10T06:55:31;94409.81;;;9.54;100.00
20077;BME280;12348;42.710;23.378;2022-12-10T06:57:58;94417.22;;;9.49;100.00
20077;BME280;12348;42.710;23.378;2022-12-10T07:00:25;94422.34;;;9.59;100.00
20077;BME280;12348;42.710;23.378;2022-12-10T07:02:52;94434.78;;;9.82;100.00
20077;BME280;12348;42.710;23.378;2022-12-10T07:05:18;94433.88;;;9.87;100.00
20077;BME280;12348;42.710;23.378;2022-12-10T07:07:45;94434.59;;;9.79;100.00
20077;BME280;12348;42.710;23.378;2022-12-10T07:10:14;94449.91;;;9.78;100.00
20077;BME280;12348;42.710;23.378;2022-12-10T07:12:41;94451.41;;;9.84;100.00
20077;BME280;12348;42.710;23.378;2022-12-10T07:15:09;94443.41;;;9.93;100.00
20077;BME280;12348;42.710;23.378;2022-12-10T07:17:36;94434.88;;;9.91;100.00
20077;BME280;12348;42.710;23.378;2022-12-10T07:20:04;94430.41;;;9.86;100.00
20077;BME280;12348;42.710;23.378;2022-12-10T07:22:31;94421.16;;;9.79;100.00
20077;BME280;12348;42.710;23.378;2022-12-10T07:24:58;94404.31;;;9.73;100.00
20077;BME280;12348;42.710;23.378;2022-12-10T07:27:26;94394.47;;;9.82;100.00
20077;BME280;12348;42.710;23.378;2022-12-10T07:29:53;94403.22;;;10.10;100.00
20077;BME280;12348;42.710;23.378;2022-12-10T07:32:20;94394.50;;;10.05;100.00
20077;BME280;12348;42.710;23.378;2022-12-10T07:34:47;94390.50;;;10.02;100.00
20077;BME280;12348;42.710;23.378;2022-12-10T07:37:13;94389.22;;;10.00;100.00
20077;BME280;12348;42.710;23.378;2022-12-10T07:39:40;94394.72;;;9.94;100.00
20077;BME280;12348;42.710;23.378;2022-12-10T07:42:08;94400.16;;;10.03;100.00
20077;BME280;12348;42.710;23.378;2022-12-10T07:44:36;94396.19;;;10.23;100.00
20077;BME280;12348;42.710;23.378;2022-12-10T07:47:03;94388.38;;;10.13;100.00
20077;BME280;12348;42.710;23.378;2022-12-10T07:49:30;94389.06;;;10.18;100.00
20077;BME280;12348;42.710;23.378;2022-12-10T07:51:57;94395.63;;;10.26;100.00
20077;BME280;12348;42.710;23.378;2022-12-10T07:54:23;94397.25;;;10.27;100.00
20077;BME280;12348;42.710;23.378;2022-12-10T07:56:50;94389.44;;;10.48;100.00
20077;BME280;12348;42.710;23.378;2022-12-10T07:59:18;94385.22;;;10.56;100.00
20077;BME280;12348;42.710;23.378;2022-12-10T08:01:46;94380.19;;;10.63;100.00
20077;BME280;12348;42.710;23.378;2022-12-10T08:04:14;94375.78;;;10.67;100.00
20077;BME280;12348;42.710;23.378;2022-12-10T08:06:41;94375.50;;;10.68;100.00
20077;BME280;12348;42.710;23.378;2022-12-10T08:09:09;94376.53;;;10.90;100.00
20077;BME280;12348;42.710;23.378;2022-12-10T08:11:36;94368.81;;;10.97;100.00
20077;BME280;12348;42.710;23.378;2022-12-10T08:14:02;94372.69;;;11.13;100.00
20077;BME280;12348;42.710;23.378;2022-12-10T08:16:30;94366.56;;;11.30;100.00
20077;BME280;12348;42.710;23.378;2022-12-10T08:22:11;94385.13;;;11.01;100.00
20077;BME280;12348;42.710;23.378;2022-12-10T08:24:38;94384.09;;;11.19;100.00
20077;BME280;12348;42.710;23.378;2022-12-10T08:27:05;94372.09;;;11.25;100.00
20077;BME280;12348;42.710;23.378;2022-12-10T08:29:32;94358.13;;;11.23;100.00
20077;BME280;12348;42.710;23.378;2022-12-10T08:31:58;94356.00;;;11.03;100.00
20077;BME280;12348;42.710;23.378;2022-12-10T08:34:26;94362.53;;;11.10;100.00
20077;BME280;12348;42.710;23.378;2022-12-10T08:36:53;94361.78;;;11.27;100.00
20077;BME280;12348;42.710;23.378;2022-12-10T08:39:21;94367.56;;;11.43;100.00
20077;BME280;12348;42.710;23.378;2022-12-10T08:41:48;94365.50;;;11.57;100.00
20077;BME280;12348;42.710;23.378;2022-12-10T08:44:14;94356.78;;;11.52;100.00
20077;BME280;12348;42.710;23.378;2022-12-10T08:46:41;94347.44;;;11.67;100.00
20077;BME280;12348;42.710;23.378;2022-12-10T08:49:08;94336.72;;;11.84;100.00
20077;BME280;12348;42.710;23.378;2022-12-10T08:51:35;94336.38;;;11.85;100.00
20077;BME280;12348;42.710;23.378;2022-12-10T08:54:02;94337.66;;;12.14;100.00
20077;BME280;12348;42.710;23.378;2022-12-10T08:56:31;94336.84;;;12.13;100.00
20077;BME280;12348;42.710;23.378;2022-12-10T08:58:58;94324.47;;;12.21;100.00
20077;BME280;12348;42.710;23.378;2022-12-10T09:01:24;94319.09;;;12.21;100.00
20077;BME280;12348;42.710;23.378;2022-12-10T09:03:51;94316.38;;;12.30;100.00
20077;BME280;12348;42.710;23.378;2022-12-10T09:06:21;94314.88;;;12.50;100.00
20077;BME280;12348;42.710;23.378;2022-12-10T09:08:49;94304.31;;;12.83;100.00
20077;BME280;12348;42.710;23.378;2022-12-10T09:11:18;94313.84;;;12.80;100.00
20077;BME280;12348;42.710;23.378;2022-12-10T09:13:46;94313.03;;;12.89;100.00
20077;BME280;12348;42.710;23.378;2022-12-10T09:16:13;94303.13;;;13.81;100.00
20077;BME280;12348;42.710;23.378;2022-12-10T09:18:40;94307.13;;;14.71;100.00
20077;BME280;12348;42.710;23.378;2022-12-10T09:21:08;94305.91;;;15.55;100.00
20077;BME280;12348;42.710;23.378;2022-12-10T09:23:35;94311.72;;;15.65;100.00
20077;BME280;12348;42.710;23.378;2022-12-10T09:26:05;94310.78;;;15.61;100.00
20077;BME280;12348;42.710;23.378;2022-12-10T09:28:32;94302.19;;;15.59;100.00
20077;BME280;12348;42.710;23.378;2022-12-10T09:31:01;94296.41;;;15.48;100.00
20077;BME280;12348;42.710;23.378;2022-12-10T09:33:28;94290.44;;;15.06;100.00
20077;BME280;12348;42.710;23.378;2022-12-10T09:35:55;94288.50;;;15.68;100.00
20077;BME280;12348;42.710;23.378;2022-12-10T09:38:23;94287.69;;;14.69;100.00
20077;BME280;12348;42.710;23.378;2022-12-10T09:40:56;94288.94;;;14.05;100.00
20077;BME280;12348;42.710;23.378;2022-12-10T09:43:37;94276.94;;;13.94;100.00
20077;BME280;12348;42.710;23.378;2022-12-10T09:46:15;94267.38;;;13.97;100.00
20077;BME280;12348;42.710;23.378;2022-12-10T09:48:54;94255.44;;;14.10;100.00
20077;BME280;12348;42.710;23.378;2022-12-10T09:51:28;94248.06;;;14.89;100.00
20077;BME280;12348;42.710;23.378;2022-12-10T09:53:57;94246.47;;;16.02;100.00
20077;BME280;12348;42.710;23.378;2022-12-10T09:56:28;94241.06;;;17.09;100.00
20077;BME280;12348;42.710;23.378;2022-12-10T09:58:57;94243.09;;;17.63;100.00
20077;BME280;12348;42.710;23.378;2022-12-10T10:01:28;94237.47;;;18.30;100.00
20077;BME280;12348;42.710;23.378;2022-12-10T10:03:56;94235.38;;;19.35;100.00
20077;BME280;12348;42.710;23.378;2022-12-10T10:06:26;94244.25;;;19.55;100.00
20077;BME280;12348;42.710;23.378;2022-12-10T10:08:57;94238.88;;;19.89;100.00
20077;BME280;12348;42.710;23.378;2022-12-10T10:11:29;94225.09;;;20.45;100.00
20077;BME280;12348;42.710;23.378;2022-12-10T10:13:58;94235.16;;;21.64;93.26
20077;BME280;12348;42.710;23.378;2022-12-10T10:16:32;94236.44;;;21.88;88.07
20077;BME280;12348;42.710;23.378;2022-12-10T10:19:02;94240.22;;;21.62;87.49
20077;BME280;12348;42.710;23.378;2022-12-10T10:21:32;94235.88;;;21.09;86.67
20077;BME280;12348;42.710;23.378;2022-12-10T10:24:00;94227.34;;;20.36;91.79
20077;BME280;12348;42.710;23.378;2022-12-10T10:26:28;94233.91;;;20.62;95.73
20077;BME280;12348;42.710;23.378;2022-12-10T10:28:57;94235.78;;;20.24;96.96
20077;BME280;12348;42.710;23.378;2022-12-10T10:31:28;94226.19;;;20.03;96.83
20077;BME280;12348;42.710;23.378;2022-12-10T10:33:58;94222.69;;;20.40;98.03
20077;BME280;12348;42.710;23.378;2022-12-10T10:36:27;94204.88;;;20.94;92.66
20077;BME280;12348;42.710;23.378;2022-12-10T10:38:54;94188.84;;;20.52;91.01
20077;BME280;12348;42.710;23.378;2022-12-10T10:41:23;94187.63;;;19.52;98.94
20077;BME280;12348;42.710;23.378;2022-12-10T10:43:58;94179.81;;;19.50;100.00
20077;BME280;12348;42.710;23.378;2022-12-10T10:46:27;94176.00;;;19.02;100.00
20077;BME280;12348;42.710;23.378;2022-12-10T10:49:19;94189.72;;;18.17;100.00
20077;BME280;12348;42.710;23.378;2022-12-10T10:51:48;94191.81;;;18.47;100.00
20077;BME280;12348;42.710;23.378;2022-12-10T10:54:32;94194.66;;;18.31;100.00
20077;BME280;12348;42.710;23.378;2022-12-10T10:57:02;94191.19;;;18.34;100.00
20077;BME280;12348;42.710;23.378;2022-12-10T10:59:31;94187.66;;;18.33;100.00
20077;BME280;12348;42.710;23.378;2022-12-10T11:02:04;94187.44;;;18.19;100.00
20077;BME280;12348;42.710;23.378;2022-12-10T11:04:37;94177.00;;;18.25;100.00
20077;BME280;12348;42.710;23.378;2022-12-10T11:07:18;94181.09;;;18.57;100.00
20077;BME280;12348;42.710;23.378;2022-12-10T11:09:46;94157.06;;;18.66;100.00
20077;BME280;12348;42.710;23.378;2022-12-10T11:12:27;94162.00;;;18.34;100.00
20077;BME280;12348;42.710;23.378;2022-12-10T11:14:55;94155.38;;;18.12;100.00
20077;BME280;12348;42.710;23.378;2022-12-10T11:17:24;94144.63;;;18.42;100.00
20077;BME280;12348;42.710;23.378;2022-12-10T11:19:58;94134.25;;;18.52;100.00
20077;BME280;12348;42.710;23.378;2022-12-10T11:22:27;94127.88;;;18.21;100.00
20077;BME280;12348;42.710;23.378;2022-12-10T11:24:54;94119.81;;;18.05;100.00
20077;BME280;12348;42.710;23.378;2022-12-10T11:27:36;94114.25;;;17.98;100.00
20077;BME280;12348;42.710;23.378;2022-12-10T11:30:11;94113.66;;;18.08;100.00
20077;BME280;12348;42.710;23.378;2022-12-10T11:32:55;94101.41;;;17.99;100.00
20077;BME280;12348;42.710;23.378;2022-12-10T11:35:36;94095.03;;;17.91;100.00
20077;BME280;12348;42.710;23.378;2022-12-10T11:38:13;94095.81;;;17.91;100.00
20077;BME280;12348;42.710;23.378;2022-12-10T11:40:47;94103.59;;;17.89;100.00
20077;BME280;12348;42.710;23.378;2022-12-10T11:46:25;94111.75;;;17.31;100.00
20077;BME280;12348;42.710;23.378;2022-12-10T11:49:17;94121.31;;;17.25;100.00
20077;BME280;12348;42.710;23.378;2022-12-10T11:51:54;94108.47;;;17.06;100.00
20077;BME280;12348;42.710;23.378;2022-12-10T11:54:40;94112.47;;;16.93;100.00
20077;BME280;12348;42.710;23.378;2022-12-10T11:57:16;94112.16;;;16.63;100.00
20077;BME280;12348;42.710;23.378;2022-12-10T11:59:53;94100.06;;;16.60;100.00
20077;BME280;12348;42.710;23.378;2022-12-10T12:02:42;94084.59;;;16.80;100.00
20077;BME280;12348;42.710;23.378;2022-12-10T12:05:26;94096.28;;;16.81;100.00
20077;BME280;12348;42.710;23.378;2022-12-10T12:08:02;94092.34;;;16.62;100.00
20077;BME280;12348;42.710;23.378;2022-12-10T12:11:02;94093.31;;;16.54;100.00
20077;BME280;12348;42.710;23.378;2022-12-10T12:13:40;94083.69;;;16.41;100.00
20077;BME280;12348;42.710;23.378;2022-12-10T12:16:11;94072.47;;;16.42;100.00
20077;BME280;12348;42.710;23.378;2022-12-10T12:18:43;94070.63;;;16.31;100.00
20077;BME280;12348;42.710;23.378;2022-12-10T12:21:16;94064.34;;;15.95;100.00
20077;BME280;12348;42.710;23.378;2022-12-10T12:23:49;94061.16;;;15.77;100.00
20077;BME280;12348;42.710;23.378;2022-12-10T12:26:20;94065.47;;;15.50;100.00
20077;BME280;12348;42.710;23.378;2022-12-10T12:28:53;94064.00;;;15.24;100.00
20077;BME280;12348;42.710;23.378;2022-12-10T12:31:26;94047.91;;;15.32;100.00
20077;BME280;12348;42.710;23.378;2022-12-10T12:33:59;94052.41;;;15.40;100.00
20077;BME280;12348;42.710;23.378;2022-12-10T12:36:30;94042.59;;;15.35;100.00
20077;BME280;12348;42.710;23.378;2022-12-10T12:39:03;94044.25;;;15.40;100.00
20077;BME280;12348;42.710;23.378;2022-12-10T12:41:37;94034.09;;;15.37;100.00
20077;BME280;12348;42.710;23.378;2022-12-10T12:44:14;94037.50;;;15.34;100.00
20077;BME280;12348;42.710;23.378;2022-12-10T12:46:44;94025.88;;;15.49;100.00
20077;BME280;12348;42.710;23.378;2022-12-10T12:49:18;94012.84;;;15.39;100.00
20077;BME280;12348;42.710;23.378;2022-12-10T12:51:52;94014.22;;;15.33;100.00
20077;BME280;12348;42.710;23.378;2022-12-10T12:54:20;94030.75;;;15.27;100.00
20077;BME280;12348;42.710;23.378;2022-12-10T12:56:58;94019.19;;;15.31;100.00
20077;BME280;12348;42.710;23.378;2022-12-10T12:59:36;94006.25;;;15.24;100.00
20077;BME280;12348;42.710;23.378;2022-12-10T13:02:18;94011.03;;;15.15;100.00
20077;BME280;12348;42.710;23.378;2022-12-10T13:04:47;94007.78;;;15.09;100.00
20077;BME280;12348;42.710;23.378;2022-12-10T13:07:29;94014.38;;;14.96;100.00